sensor_id;sensor_type;location;lat;lon;timestamp;P1;durP1;ratioP1;P2;durP2;ratioP2
60844;SDS011;47984;51.250;6.712;2022-07-06T00:01:21;1.45;;;0.82;;
60844;SDS011;47984;51.250;6.712;2022-07-06T00:03:49;1.60;;;0.90;;
60844;SDS011;47984;51.250;6.712;2022-07-06T00:06:21;2.67;;;1.20;;
60844;SDS011;47984;51.250;6.712;2022-07-06T00:08:49;1.50;;;1.00;;
60844;SDS011;47984;51.250;6.712;2022-07-06T00:11:17;0.95;;;0.90;;
60844;SDS011;47984;51.250;6.712;2022-07-06T00:13:44;1.15;;;1.00;;
60844;SDS011;47984;51.250;6.712;2022-07-06T00:16:11;2.03;;;0.82;;
60844;SDS011;47984;51.250;6.712;2022-07-06T00:18:38;1.42;;;0.88;;
60844;SDS011;47984;51.250;6.712;2022-07-06T00:21:06;2.05;;;1.23;;
60844;SDS011;47984;51.250;6.712;2022-07-06T00:23:33;0.90;;;0.90;;
60844;SDS011;47984;51.250;6.712;2022-07-06T00:26:01;1.15;;;0.82;;
60844;SDS011;47984;51.250;6.712;2022-07-06T00:28:29;2.50;;;1.00;;
60844;SDS011;47984;51.250;6.712;2022-07-06T00:30:56;1.90;;;1.05;;
60844;SDS011;47984;51.250;6.712;2022-07-06T00:33:23;0.80;;;0.80;;
60844;SDS011;47984;51.250;6.712;2022-07-06T00:35:51;1.77;;;1.00;;
60844;SDS011;47984;51.250;6.712;2022-07-06T00:38:18;2.13;;;1.10;;
60844;SDS011;47984;51.250;6.712;2022-07-06T00:40:45;0.88;;;0.88;;
60844;SDS011;47984;51.250;6.712;2022-07-06T00:43:13;1.50;;;0.90;;
60844;SDS011;47984;51.250;6.712;2022-07-06T00:45:40;1.38;;;1.00;;
60844;SDS011;47984;51.250;6.712;2022-07-06T00:48:07;2.45;;;0.93;;
60844;SDS011;47984;51.250;6.712;2022-07-06T00:50:35;2.72;;;1.05;;
60844;SDS011;47984;51.250;6.712;2022-07-06T00:53:03;2.65;;;1.33;;
60844;SDS011;47984;51.250;6.712;2022-07-06T00:55:33;1.88;;;1.30;;
60844;SDS011;47984;51.250;6.712;2022-07-06T00:58:06;2.38;;;1.92;;
60844;SDS011;47984;51.250;6.712;2022-07-06T01:00:35;0.85;;;0.85;;
60844;SDS011;47984;51.250;6.712;2022-07-06T01:03:03;0.80;;;0.80;;
60844;SDS011;47984;51.250;6.712;2022-07-06T01:05:30;1.65;;;1.15;;
60844;SDS011;47984;51.250;6.712;2022-07-06T01:07:57;1.17;;;1.08;;
60844;SDS011;47984;51.250;6.712;2022-07-06T01:10:27;0.82;;;0.82;;
60844;SDS011;47984;51.250;6.712;2022-07-06T01:12:54;0.93;;;0.90;;
60844;SDS011;47984;51.250;6.712;2022-07-06T01:15:24;1.67;;;0.98;;
60844;SDS011;47984;51.250;6.712;2022-07-06T01:17:52;1.50;;;1.20;;
60844;SDS011;47984;51.250;6.712;2022-07-06T01:20:21;1.48;;;1.17;;
60844;SDS011;47984;51.250;6.712;2022-07-06T01:22:52;0.93;;;0.90;;
60844;SDS011;47984;51.250;6.712;2022-07-06T01:25:21;0.85;;;0.85;;
60844;SDS011;47984;51.250;6.712;2022-07-06T01:27:48;1.65;;;0.98;;
60844;SDS011;47984;51.250;6.712;2022-07-06T01:30:17;2.47;;;1.20;;
60844;SDS011;47984;51.250;6.712;2022-07-06T01:32:46;1.00;;;1.00;;
60844;SDS011;47984;51.250;6.712;2022-07-06T01:35:14;1.80;;;1.10;;
60844;SDS011;47984;51.250;6.712;2022-07-06T01:37:42;1.40;;;1.30;;
60844;SDS011;47984;51.250;6.712;2022-07-06T01:40:10;1.10;;;1.10;;
60844;SDS011;47984;51.250;6.712;2022-07-06T01:42:38;1.55;;;1.00;;
60844;SDS011;47984;51.250;6.712;2022-07-06T01:45:06;2.47;;;1.35;;
60844;SDS011;47984;51.250;6.712;2022-07-06T01:47:35;2.25;;;1.92;;
60844;SDS011;47984;51.250;6.712;2022-07-06T01:50:06;1.75;;;1.23;;
60844;SDS011;47984;51.250;6.712;2022-07-06T01:52:35;1.40;;;1.30;;
60844;SDS011;47984;51.250;6.712;2022-07-06T01:55:03;1.50;;;1.40;;
60844;SDS011;47984;51.250;6.712;2022-07-06T01:57:30;1.58;;;1.23;;
60844;SDS011;47984;51.250;6.712;2022-07-06T01:59:58;2.08;;;1.38;;
60844;SDS011;47984;51.250;6.712;2022-07-06T02:02:25;3.10;;;1.85;;
60844;SDS011;47984;51.250;6.712;2022-07-06T02:04:52;1.63;;;1.38;;
60844;SDS011;47984;51.250;6.712;2022-07-06T02:07:19;3.45;;;1.95;;
60844;SDS011;47984;51.250;6.712;2022-07-06T02:09:46;1.60;;;1.38;;
60844;SDS011;47984;51.250;6.712;2022-07-06T02:12:13;1.52;;;1.10;;
60844;SDS011;47984;51.250;6.712;2022-07-06T02:14:40;1.45;;;1.35;;
60844;SDS011;47984;51.250;6.712;2022-07-06T02:17:07;1.73;;;1.33;;
60844;SDS011;47984;51.250;6.712;2022-07-06T02:19:35;2.35;;;1.42;;
60844;SDS011;47984;51.250;6.712;2022-07-06T02:22:02;1.63;;;1.35;;
60844;SDS011;47984;51.250;6.712;2022-07-06T02:24:30;2.30;;;1.25;;
60844;SDS011;47984;51.250;6.712;2022-07-06T02:26:58;1.90;;;1.35;;
60844;SDS011;47984;51.250;6.712;2022-07-06T02:29:25;3.05;;;1.50;;
60844;SDS011;47984;51.250;6.712;2022-07-06T02:31:52;3.17;;;1.75;;
60844;SDS011;47984;51.250;6.712;2022-07-06T02:34:19;1.55;;;1.45;;
60844;SDS011;47984;51.250;6.712;2022-07-06T02:36:46;2.03;;;1.50;;
60844;SDS011;47984;51.250;6.712;2022-07-06T02:39:14;1.52;;;1.40;;
60844;SDS011;47984;51.250;6.712;2022-07-06T02:41:41;1.90;;;1.58;;
60844;SDS011;47984;51.250;6.712;2022-07-06T02:44:08;1.85;;;1.55;;
60844;SDS011;47984;51.250;6.712;2022-07-06T02:46:35;1.65;;;1.55;;
60844;SDS011;47984;51.250;6.712;2022-07-06T02:49:02;3.03;;;1.33;;
60844;SDS011;47984;51.250;6.712;2022-07-06T02:51:29;2.53;;;1.65;;
60844;SDS011;47984;51.250;6.712;2022-07-06T02:53:56;1.50;;;1.33;;
60844;SDS011;47984;51.250;6.712;2022-07-06T02:56:23;3.38;;;1.63;;
60844;SDS011;47984;51.250;6.712;2022-07-06T02:58:50;1.77;;;1.50;;
60844;SDS011;47984;51.250;6.712;2022-07-06T03:01:17;2.05;;;1.55;;
60844;SDS011;47984;51.250;6.712;2022-07-06T03:03:47;2.13;;;1.63;;
60844;SDS011;47984;51.250;6.712;2022-07-06T03:06:14;1.85;;;1.50;;
60844;SDS011;47984;51.250;6.712;2022-07-06T03:08:41;2.33;;;1.70;;
60844;SDS011;47984;51.250;6.712;2022-07-06T03:11:08;3.83;;;1.67;;
60844;SDS011;47984;51.250;6.712;2022-07-06T03:13:36;2.85;;;1.48;;
60844;SDS011;47984;51.250;6.712;2022-07-06T03:16:03;1.75;;;1.23;;
60844;SDS011;47984;51.250;6.712;2022-07-06T03:18:30;1.65;;;1.55;;
60844;SDS011;47984;51.250;6.712;2022-07-06T03:20:58;1.35;;;1.25;;
60844;SDS011;47984;51.250;6.712;2022-07-06T03:23:25;1.40;;;1.30;;
60844;SDS011;47984;51.250;6.712;2022-07-06T03:25:52;1.45;;;1.15;;
60844;SDS011;47984;51.250;6.712;2022-07-06T03:28:19;1.35;;;1.25;;
60844;SDS011;47984;51.250;6.712;2022-07-06T03:30:47;2.17;;;1.42;;
60844;SDS011;47984;51.250;6.712;2022-07-06T03:33:14;2.25;;;1.48;;
60844;SDS011;47984;51.250;6.712;2022-07-06T03:35:41;1.90;;;1.52;;
60844;SDS011;47984;51.250;6.712;2022-07-06T03:38:08;2.03;;;1.83;;
60844;SDS011;47984;51.250;6.712;2022-07-06T03:40:35;1.15;;;1.13;;
60844;SDS011;47984;51.250;6.712;2022-07-06T03:43:02;1.48;;;1.20;;
60844;SDS011;47984;51.250;6.712;2022-07-06T03:45:29;2.63;;;1.42;;
60844;SDS011;47984;51.250;6.712;2022-07-06T03:47:57;1.63;;;1.52;;
60844;SDS011;47984;51.250;6.712;2022-07-06T03:50:24;5.43;;;1.70;;
60844;SDS011;47984;51.250;6.712;2022-07-06T03:52:51;1.90;;;1.48;;
60844;SDS011;47984;51.250;6.712;2022-07-06T03:55:18;4.22;;;1.70;;
60844;SDS011;47984;51.250;6.712;2022-07-06T03:57:45;2.30;;;1.33;;
60844;SDS011;47984;51.250;6.712;2022-07-06T04:00:13;1.73;;;1.63;;
60844;SDS011;47984;51.250;6.712;2022-07-06T04:02:40;2.28;;;1.63;;
60844;SDS011;47984;51.250;6.712;2022-07-06T04:05:07;2.85;;;1.50;;
60844;SDS011;47984;51.250;6.712;2022-07-06T04:07:35;3.17;;;1.70;;
60844;SDS011;47984;51.250;6.712;2022-07-06T04:10:02;2.58;;;1.50;;
60844;SDS011;47984;51.250;6.712;2022-07-06T04:12:30;2.25;;;1.20;;
60844;SDS011;47984;51.250;6.712;2022-07-06T04:14:57;2.60;;;1.45;;
60844;SDS011;47984;51.250;6.712;2022-07-06T04:17:24;1.50;;;1.40;;
60844;SDS011;47984;51.250;6.712;2022-07-06T04:20:10;1.67;;;1.42;;
60844;SDS011;47984;51.250;6.712;2022-07-06T04:22:38;2.10;;;1.40;;
60844;SDS011;47984;51.250;6.712;2022-07-06T04:25:05;1.50;;;1.23;;
60844;SDS011;47984;51.250;6.712;2022-07-06T04:27:33;2.55;;;1.90;;
60844;SDS011;47984;51.250;6.712;2022-07-06T04:30:01;2.20;;;1.73;;
60844;SDS011;47984;51.250;6.712;2022-07-06T04:32:30;1.95;;;1.63;;
60844;SDS011;47984;51.250;6.712;2022-07-06T04:34:57;2.90;;;1.83;;
60844;SDS011;47984;51.250;6.712;2022-07-06T04:37:25;4.20;;;1.88;;
60844;SDS011;47984;51.250;6.712;2022-07-06T04:39:52;1.73;;;1.60;;
60844;SDS011;47984;51.250;6.712;2022-07-06T04:42:19;1.83;;;1.65;;
60844;SDS011;47984;51.250;6.712;2022-07-06T04:44:46;2.83;;;1.73;;
60844;SDS011;47984;51.250;6.712;2022-07-06T04:47:14;3.65;;;2.75;;
60844;SDS011;47984;51.250;6.712;2022-07-06T04:49:41;2.85;;;1.52;;
60844;SDS011;47984;51.250;6.712;2022-07-06T04:52:08;3.00;;;1.88;;
60844;SDS011;47984;51.250;6.712;2022-07-06T04:54:35;2.38;;;1.80;;
60844;SDS011;47984;51.250;6.712;2022-07-06T04:57:03;2.63;;;1.85;;
60844;SDS011;47984;51.250;6.712;2022-07-06T04:59:37;1.83;;;1.45;;
60844;SDS011;47984;51.250;6.712;2022-07-06T05:02:05;2.45;;;1.52;;
60844;SDS011;47984;51.250;6.712;2022-07-06T05:04:32;2.60;;;1.60;;
60844;SDS011;47984;51.250;6.712;2022-07-06T05:07:00;1.65;;;1.52;;
60844;SDS011;47984;51.250;6.712;2022-07-06T05:09:27;1.65;;;1.55;;
60844;SDS011;47984;51.250;6.712;2022-07-06T05:11:54;4.05;;;1.45;;
60844;SDS011;47984;51.250;6.712;2022-07-06T05:14:21;2.28;;;1.85;;
60844;SDS011;47984;51.250;6.712;2022-07-06T05:16:49;2.65;;;1.60;;
60844;SDS011;47984;51.250;6.712;2022-07-06T05:19:16;2.60;;;1.73;;
60844;SDS011;47984;51.250;6.712;2022-07-06T05:21:43;2.45;;;1.67;;
60844;SDS011;47984;51.250;6.712;2022-07-06T05:24:10;3.90;;;1.90;;
60844;SDS011;47984;51.250;6.712;2022-07-06T05:26:38;2.97;;;1.70;;
60844;SDS011;47984;51.250;6.712;2022-07-06T05:29:05;2.55;;;1.77;;
60844;SDS011;47984;51.250;6.712;2022-07-06T05:31:32;1.85;;;1.55;;
60844;SDS011;47984;51.250;6.712;2022-07-06T05:33:59;3.60;;;1.70;;
60844;SDS011;47984;51.250;6.712;2022-07-06T05:36:26;3.88;;;1.83;;
60844;SDS011;47984;51.250;6.712;2022-07-06T05:38:54;1.65;;;1.55;;
60844;SDS011;47984;51.250;6.712;2022-07-06T05:41:21;1.60;;;1.40;;
60844;SDS011;47984;51.250;6.712;2022-07-06T05:43:54;1.48;;;1.33;;
60844;SDS011;47984;51.250;6.712;2022-07-06T05:46:22;2.67;;;2.13;;
60844;SDS011;47984;51.250;6.712;2022-07-06T05:48:49;1.65;;;1.35;;
60844;SDS011;47984;51.250;6.712;2022-07-06T05:51:34;1.38;;;1.05;;
60844;SDS011;47984;51.250;6.712;2022-07-06T05:54:02;2.40;;;1.25;;
60844;SDS011;47984;51.250;6.712;2022-07-06T05:56:29;1.25;;;1.02;;
60844;SDS011;47984;51.250;6.712;2022-07-06T05:58:56;1.85;;;0.80;;
60844;SDS011;47984;51.250;6.712;2022-07-06T06:01:23;1.60;;;1.08;;
60844;SDS011;47984;51.250;6.712;2022-07-06T06:03:51;2.60;;;1.17;;
60844;SDS011;47984;51.250;6.712;2022-07-06T06:06:18;2.50;;;1.23;;
60844;SDS011;47984;51.250;6.712;2022-07-06T06:08:46;2.40;;;0.90;;
60844;SDS011;47984;51.250;6.712;2022-07-06T06:11:13;1.33;;;0.80;;
60844;SDS011;47984;51.250;6.712;2022-07-06T06:13:40;1.20;;;0.80;;
60844;SDS011;47984;51.250;6.712;2022-07-06T06:16:07;1.77;;;0.77;;
60844;SDS011;47984;51.250;6.712;2022-07-06T06:18:35;2.17;;;0.88;;
60844;SDS011;47984;51.250;6.712;2022-07-06T06:21:08;3.10;;;0.65;;
60844;SDS011;47984;51.250;6.712;2022-07-06T06:23:36;2.22;;;0.90;;
60844;SDS011;47984;51.250;6.712;2022-07-06T06:26:03;2.45;;;1.20;;
60844;SDS011;47984;51.250;6.712;2022-07-06T06:28:30;2.08;;;0.90;;
60844;SDS011;47984;51.250;6.712;2022-07-06T06:30:58;1.63;;;0.70;;
60844;SDS011;47984;51.250;6.712;2022-07-06T06:33:25;3.45;;;1.10;;
60844;SDS011;47984;51.250;6.712;2022-07-06T06:35:52;2.35;;;0.70;;
60844;SDS011;47984;51.250;6.712;2022-07-06T06:38:21;2.15;;;0.82;;
60844;SDS011;47984;51.250;6.712;2022-07-06T06:40:53;1.90;;;0.60;;
60844;SDS011;47984;51.250;6.712;2022-07-06T06:43:21;1.58;;;0.65;;
60844;SDS011;47984;51.250;6.712;2022-07-06T06:45:48;2.40;;;0.50;;
60844;SDS011;47984;51.250;6.712;2022-07-06T06:48:16;1.20;;;0.60;;
60844;SDS011;47984;51.250;6.712;2022-07-06T06:50:44;0.88;;;0.40;;
60844;SDS011;47984;51.250;6.712;2022-07-06T06:53:12;1.27;;;0.60;;
60844;SDS011;47984;51.250;6.712;2022-07-06T06:55:39;2.75;;;0.50;;
60844;SDS011;47984;51.250;6.712;2022-07-06T06:58:07;0.95;;;0.40;;
60844;SDS011;47984;51.250;6.712;2022-07-06T07:00:34;1.05;;;0.63;;
60844;SDS011;47984;51.250;6.712;2022-07-06T07:03:01;0.60;;;0.47;;
60844;SDS011;47984;51.250;6.712;2022-07-06T07:05:29;0.75;;;0.75;;
60844;SDS011;47984;51.250;6.712;2022-07-06T07:07:56;1.63;;;0.57;;
60844;SDS011;47984;51.250;6.712;2022-07-06T07:10:30;1.65;;;0.70;;
60844;SDS011;47984;51.250;6.712;2022-07-06T07:12:58;1.38;;;0.50;;
60844;SDS011;47984;51.250;6.712;2022-07-06T07:15:25;1.58;;;0.82;;
60844;SDS011;47984;51.250;6.712;2022-07-06T07:17:52;3.15;;;0.80;;
60844;SDS011;47984;51.250;6.712;2022-07-06T07:20:20;2.35;;;0.75;;
60844;SDS011;47984;51.250;6.712;2022-07-06T07:22:47;1.13;;;0.93;;
60844;SDS011;47984;51.250;6.712;2022-07-06T07:25:14;0.57;;;0.50;;
60844;SDS011;47984;51.250;6.712;2022-07-06T07:27:41;0.85;;;0.40;;
60844;SDS011;47984;51.250;6.712;2022-07-06T07:30:08;2.47;;;0.73;;
60844;SDS011;47984;51.250;6.712;2022-07-06T07:32:37;1.00;;;0.70;;
60844;SDS011;47984;51.250;6.712;2022-07-06T07:35:06;3.05;;;0.70;;
60844;SDS011;47984;51.250;6.712;2022-07-06T07:37:34;1.40;;;0.40;;
60844;SDS011;47984;51.250;6.712;2022-07-06T07:40:02;1.30;;;0.73;;
60844;SDS011;47984;51.250;6.712;2022-07-06T07:42:31;1.60;;;0.40;;
60844;SDS011;47984;51.250;6.712;2022-07-06T07:44:59;1.25;;;0.40;;
60844;SDS011;47984;51.250;6.712;2022-07-06T07:47:26;0.40;;;0.30;;
60844;SDS011;47984;51.250;6.712;2022-07-06T07:49:53;1.67;;;0.50;;
60844;SDS011;47984;51.250;6.712;2022-07-06T07:52:20;2.30;;;0.73;;
60844;SDS011;47984;51.250;6.712;2022-07-06T07:54:48;2.90;;;0.60;;
60844;SDS011;47984;51.250;6.712;2022-07-06T07:57:35;0.77;;;0.30;;
60844;SDS011;47984;51.250;6.712;2022-07-06T08:00:03;1.92;;;0.40;;
60844;SDS011;47984;51.250;6.712;2022-07-06T08:02:32;2.00;;;0.40;;
60844;SDS011;47984;51.250;6.712;2022-07-06T08:04:59;1.65;;;0.68;;
60844;SDS011;47984;51.250;6.712;2022-07-06T08:07:26;1.02;;;0.50;;
60844;SDS011;47984;51.250;6.712;2022-07-06T08:09:53;1.15;;;0.50;;
60844;SDS011;47984;51.250;6.712;2022-07-06T08:12:20;4.20;;;0.70;;
60844;SDS011;47984;51.250;6.712;2022-07-06T08:14:48;0.93;;;0.40;;
60844;SDS011;47984;51.250;6.712;2022-07-06T08:17:15;3.55;;;0.28;;
60844;SDS011;47984;51.250;6.712;2022-07-06T08:19:42;3.38;;;0.75;;
60844;SDS011;47984;51.250;6.712;2022-07-06T08:22:09;0.73;;;0.30;;
60844;SDS011;47984;51.250;6.712;2022-07-06T08:24:37;1.25;;;0.30;;
60844;SDS011;47984;51.250;6.712;2022-07-06T08:27:04;2.78;;;0.40;;
60844;SDS011;47984;51.250;6.712;2022-07-06T08:29:31;1.10;;;0.40;;
60844;SDS011;47984;51.250;6.712;2022-07-06T08:31:59;0.30;;;0.28;;
60844;SDS011;47984;51.250;6.712;2022-07-06T08:34:39;0.85;;;0.25;;
60844;SDS011;47984;51.250;6.712;2022-07-06T08:37:07;1.17;;;0.47;;
60844;SDS011;47984;51.250;6.712;2022-07-06T08:39:34;1.73;;;0.30;;
60844;SDS011;47984;51.250;6.712;2022-07-06T08:42:01;0.98;;;0.30;;
60844;SDS011;47984;51.250;6.712;2022-07-06T08:44:29;0.35;;;0.30;;
60844;SDS011;47984;51.250;6.712;2022-07-06T08:46:57;1.55;;;0.40;;
60844;SDS011;47984;51.250;6.712;2022-07-06T08:49:30;1.33;;;0.30;;
60844;SDS011;47984;51.250;6.712;2022-07-06T08:52:00;1.02;;;0.30;;
60844;SDS011;47984;51.250;6.712;2022-07-06T08:54:30;0.20;;;0.13;;
60844;SDS011;47984;51.250;6.712;2022-07-06T08:56:58;0.90;;;0.50;;
60844;SDS011;47984;51.250;6.712;2022-07-06T08:59:26;1.95;;;0.60;;
60844;SDS011;47984;51.250;6.712;2022-07-06T09:01:54;0.70;;;0.40;;
60844;SDS011;47984;51.250;6.712;2022-07-06T09:04:22;0.98;;;0.50;;
60844;SDS011;47984;51.250;6.712;2022-07-06T09:06:51;1.10;;;0.30;;
60844;SDS011;47984;51.250;6.712;2022-07-06T09:09:22;0.52;;;0.20;;
60844;SDS011;47984;51.250;6.712;2022-07-06T09:14:20;2.08;;;0.20;;
60844;SDS011;47984;51.250;6.712;2022-07-06T09:16:51;0.68;;;0.30;;
60844;SDS011;47984;51.250;6.712;2022-07-06T09:19:33;1.33;;;0.40;;
60844;SDS011;47984;51.250;6.712;2022-07-06T09:22:02;0.65;;;0.20;;
60844;SDS011;47984;51.250;6.712;2022-07-06T09:24:31;1.67;;;0.40;;
60844;SDS011;47984;51.250;6.712;2022-07-06T09:26:58;1.80;;;0.50;;
60844;SDS011;47984;51.250;6.712;2022-07-06T09:29:31;0.47;;;0.20;;
60844;SDS011;47984;51.250;6.712;2022-07-06T09:31:58;0.45;;;0.30;;
60844;SDS011;47984;51.250;6.712;2022-07-06T09:34:41;0.90;;;0.30;;
60844;SDS011;47984;51.250;6.712;2022-07-06T09:37:11;0.55;;;0.30;;
60844;SDS011;47984;51.250;6.712;2022-07-06T09:39:40;2.28;;;0.50;;
60844;SDS011;47984;51.250;6.712;2022-07-06T09:42:10;1.90;;;0.20;;
60844;SDS011;47984;51.250;6.712;2022-07-06T09:44:38;0.50;;;0.40;;
60844;SDS011;47984;51.250;6.712;2022-07-06T09:47:08;1.00;;;0.30;;
60844;SDS011;47984;51.250;6.712;2022-07-06T09:49:37;0.75;;;0.28;;
60844;SDS011;47984;51.250;6.712;2022-07-06T09:52:09;0.28;;;0.28;;
60844;SDS011;47984;51.250;6.712;2022-07-06T09:54:37;0.55;;;0.40;;
60844;SDS011;47984;51.250;6.712;2022-07-06T09:57:06;1.17;;;0.30;;
60844;SDS011;47984;51.250;6.712;2022-07-06T09:59:35;2.22;;;0.50;;
60844;SDS011;47984;51.250;6.712;2022-07-06T10:02:05;0.82;;;0.22;;
60844;SDS011;47984;51.250;6.712;2022-07-06T10:04:34;0.68;;;0.30;;
60844;SDS011;47984;51.250;6.712;2022-07-06T10:07:02;0.68;;;0.20;;
60844;SDS011;47984;51.250;6.712;2022-07-06T10:09:33;1.10;;;0.55;;
60844;SDS011;47984;51.250;6.712;2022-07-06T10:12:01;0.73;;;0.20;;
60844;SDS011;47984;51.250;6.712;2022-07-06T10:14:31;0.45;;;0.40;;
60844;SDS011;47984;51.250;6.712;2022-07-06T10:17:00;1.20;;;0.60;;
60844;SDS011;47984;51.250;6.712;2022-07-06T10:19:32;2.70;;;0.60;;
60844;SDS011;47984;51.250;6.712;2022-07-06T10:22:01;1.52;;;0.68;;
60844;SDS011;47984;51.250;6.712;2022-07-06T10:24:30;1.45;;;0.50;;
60844;SDS011;47984;51.250;6.712;2022-07-06T10:27:00;1.55;;;0.50;;
60844;SDS011;47984;51.250;6.712;2022-07-06T10:29:30;1.50;;;0.50;;
60844;SDS011;47984;51.250;6.712;2022-07-06T10:31:59;0.95;;;0.60;;
60844;SDS011;47984;51.250;6.712;2022-07-06T10:34:28;0.20;;;0.20;;
60844;SDS011;47984;51.250;6.712;2022-07-06T10:36:55;1.05;;;0.30;;
60844;SDS011;47984;51.250;6.712;2022-07-06T10:39:35;0.47;;;0.30;;
60844;SDS011;47984;51.250;6.712;2022-07-06T10:42:46;1.08;;;0.30;;
60844;SDS011;47984;51.250;6.712;2022-07-06T10:45:19;1.75;;;0.55;;
60844;SDS011;47984;51.250;6.712;2022-07-06T10:50:41;0.57;;;0.35;;
60844;SDS011;47984;51.250;6.712;2022-07-06T10:53:23;1.27;;;0.65;;
60844;SDS011;47984;51.250;6.712;2022-07-06T10:55:53;0.52;;;0.40;;
60844;SDS011;47984;51.250;6.712;2022-07-06T11:01:20;1.30;;;0.45;;
60844;SDS011;47984;51.250;6.712;2022-07-06T11:06:23;0.43;;;0.30;;
60844;SDS011;47984;51.250;6.712;2022-07-06T11:08:53;0.95;;;0.50;;
60844;SDS011;47984;51.250;6.712;2022-07-06T11:11:38;0.57;;;0.30;;
60844;SDS011;47984;51.250;6.712;2022-07-06T11:21:52;1.08;;;0.60;;
60844;SDS011;47984;51.250;6.712;2022-07-06T11:24:26;1.05;;;0.30;;
60844;SDS011;47984;51.250;6.712;2022-07-06T11:26:56;1.75;;;0.30;;
60844;SDS011;47984;51.250;6.712;2022-07-06T11:29:26;1.50;;;0.75;;
60844;SDS011;47984;51.250;6.712;2022-07-06T11:31:56;1.40;;;0.40;;
60844;SDS011;47984;51.250;6.712;2022-07-06T11:34:28;1.88;;;0.70;;
60844;SDS011;47984;51.250;6.712;2022-07-06T11:36:59;0.32;;;0.20;;
60844;SDS011;47984;51.250;6.712;2022-07-06T11:39:36;1.48;;;0.43;;
60844;SDS011;47984;51.250;6.712;2022-07-06T11:42:10;0.70;;;0.38;;
60844;SDS011;47984;51.250;6.712;2022-07-06T11:44:39;0.98;;;0.47;;
60844;SDS011;47984;51.250;6.712;2022-07-06T11:47:08;0.38;;;0.20;;
60844;SDS011;47984;51.250;6.712;2022-07-06T11:49:37;0.93;;;0.30;;
60844;SDS011;47984;51.250;6.712;2022-07-06T11:52:07;1.45;;;0.40;;
60844;SDS011;47984;51.250;6.712;2022-07-06T11:54:38;3.55;;;0.75;;
60844;SDS011;47984;51.250;6.712;2022-07-06T11:57:08;1.17;;;0.40;;
60844;SDS011;47984;51.250;6.712;2022-07-06T11:59:37;1.55;;;0.40;;
60844;SDS011;47984;51.250;6.712;2022-07-06T12:02:11;0.90;;;0.32;;
60844;SDS011;47984;51.250;6.712;2022-07-06T12:04:42;0.82;;;0.20;;
60844;SDS011;47984;51.250;6.712;2022-07-06T12:07:13;0.68;;;0.50;;
60844;SDS011;47984;51.250;6.712;2022-07-06T12:09:44;0.75;;;0.30;;
60844;SDS011;47984;51.250;6.712;2022-07-06T12:12:13;0.80;;;0.30;;
60844;SDS011;47984;51.250;6.712;2022-07-06T12:14:43;2.40;;;0.47;;
60844;SDS011;47984;51.250;6.712;2022-07-06T12:17:12;2.42;;;0.63;;
60844;SDS011;47984;51.250;6.712;2022-07-06T12:19:41;0.47;;;0.40;;
60844;SDS011;47984;51.250;6.712;2022-07-06T12:22:10;0.63;;;0.30;;
60844;SDS011;47984;51.250;6.712;2022-07-06T12:24:41;1.05;;;0.40;;
60844;SDS011;47984;51.250;6.712;2022-07-06T12:27:15;1.42;;;0.63;;
60844;SDS011;47984;51.250;6.712;2022-07-06T12:29:46;1.80;;;0.70;;
60844;SDS011;47984;51.250;6.712;2022-07-06T12:32:16;0.45;;;0.30;;
60844;SDS011;47984;51.250;6.712;2022-07-06T12:34:46;2.58;;;0.77;;
60844;SDS011;47984;51.250;6.712;2022-07-06T12:37:13;0.20;;;0.15;;
60844;SDS011;47984;51.250;6.712;2022-07-06T12:39:43;0.60;;;0.38;;
60844;SDS011;47984;51.250;6.712;2022-07-06T12:42:15;3.30;;;0.30;;
60844;SDS011;47984;51.250;6.712;2022-07-06T12:44:46;0.50;;;0.32;;
60844;SDS011;47984;51.250;6.712;2022-07-06T12:47:18;1.35;;;0.20;;
60844;SDS011;47984;51.250;6.712;2022-07-06T12:50:04;0.70;;;0.47;;
60844;SDS011;47984;51.250;6.712;2022-07-06T12:52:32;0.40;;;0.40;;
60844;SDS011;47984;51.250;6.712;2022-07-06T12:55:00;0.50;;;0.15;;
60844;SDS011;47984;51.250;6.712;2022-07-06T12:57:47;0.60;;;0.40;;
60844;SDS011;47984;51.250;6.712;2022-07-06T13:00:18;1.13;;;0.28;;
60844;SDS011;47984;51.250;6.712;2022-07-06T13:02:51;2.05;;;0.50;;
60844;SDS011;47984;51.250;6.712;2022-07-06T13:05:40;1.15;;;0.50;;
60844;SDS011;47984;51.250;6.712;2022-07-06T13:08:16;1.50;;;0.30;;
60844;SDS011;47984;51.250;6.712;2022-07-06T13:10:43;0.80;;;0.20;;
60844;SDS011;47984;51.250;6.712;2022-07-06T13:13:11;1.00;;;0.28;;
60844;SDS011;47984;51.250;6.712;2022-07-06T13:15:41;0.40;;;0.40;;
60844;SDS011;47984;51.250;6.712;2022-07-06T13:18:09;0.20;;;0.20;;
60844;SDS011;47984;51.250;6.712;2022-07-06T13:20:39;0.35;;;0.35;;
60844;SDS011;47984;51.250;6.712;2022-07-06T13:23:08;1.05;;;0.35;;
60844;SDS011;47984;51.250;6.712;2022-07-06T13:25:35;2.53;;;0.30;;
60844;SDS011;47984;51.250;6.712;2022-07-06T13:28:05;1.02;;;0.30;;
60844;SDS011;47984;51.250;6.712;2022-07-06T13:30:32;0.30;;;0.30;;
60844;SDS011;47984;51.250;6.712;2022-07-06T13:33:00;2.13;;;0.50;;
60844;SDS011;47984;51.250;6.712;2022-07-06T13:35:27;0.60;;;0.32;;
60844;SDS011;47984;51.250;6.712;2022-07-06T13:37:54;0.63;;;0.50;;
60844;SDS011;47984;51.250;6.712;2022-07-06T13:40:21;1.33;;;0.50;;
60844;SDS011;47984;51.250;6.712;2022-07-06T13:42:48;0.30;;;0.30;;
60844;SDS011;47984;51.250;6.712;2022-07-06T13:45:16;0.52;;;0.38;;
60844;SDS011;47984;51.250;6.712;2022-07-06T13:47:43;0.82;;;0.40;;
60844;SDS011;47984;51.250;6.712;2022-07-06T13:50:10;0.65;;;0.50;;
60844;SDS011;47984;51.250;6.712;2022-07-06T13:52:37;0.65;;;0.40;;
60844;SDS011;47984;51.250;6.712;2022-07-06T13:55:04;0.35;;;0.20;;
60844;SDS011;47984;51.250;6.712;2022-07-06T13:57:33;1.00;;;0.38;;
60844;SDS011;47984;51.250;6.712;2022-07-06T14:00:01;0.55;;;0.38;;
60844;SDS011;47984;51.250;6.712;2022-07-06T14:02:29;1.23;;;0.40;;
60844;SDS011;47984;51.250;6.712;2022-07-06T14:04:56;1.38;;;0.50;;
60844;SDS011;47984;51.250;6.712;2022-07-06T14:07:24;0.70;;;0.40;;
60844;SDS011;47984;51.250;6.712;2022-07-06T14:09:52;0.63;;;0.25;;
60844;SDS011;47984;51.250;6.712;2022-07-06T14:12:19;0.52;;;0.30;;
60844;SDS011;47984;51.250;6.712;2022-07-06T14:14:48;0.57;;;0.40;;
60844;SDS011;47984;51.250;6.712;2022-07-06T14:17:16;1.00;;;0.50;;
60844;SDS011;47984;51.250;6.712;2022-07-06T14:19:44;0.85;;;0.45;;
60844;SDS011;47984;51.250;6.712;2022-07-06T14:22:11;1.42;;;0.52;;
60844;SDS011;47984;51.250;6.712;2022-07-06T14:24:38;3.60;;;0.70;;
60844;SDS011;47984;51.250;6.712;2022-07-06T14:27:05;10.20;;;3.53;;
60844;SDS011;47984;51.250;6.712;2022-07-06T14:29:33;17.15;;;2.20;;
60844;SDS011;47984;51.250;6.712;2022-07-06T14:32:00;10.13;;;3.40;;
60844;SDS011;47984;51.250;6.712;2022-07-06T14:34:27;2.08;;;0.90;;
60844;SDS011;47984;51.250;6.712;2022-07-06T14:36:54;0.55;;;0.25;;
60844;SDS011;47984;51.250;6.712;2022-07-06T14:39:22;6.25;;;0.70;;
60844;SDS011;47984;51.250;6.712;2022-07-06T14:41:50;7.10;;;0.82;;
60844;SDS011;47984;51.250;6.712;2022-07-06T14:44:17;1.17;;;0.70;;
60844;SDS011;47984;51.250;6.712;2022-07-06T14:46:44;0.57;;;0.17;;
60844;SDS011;47984;51.250;6.712;2022-07-06T14:49:11;0.75;;;0.40;;
60844;SDS011;47984;51.250;6.712;2022-07-06T14:51:45;2.83;;;0.40;;
60844;SDS011;47984;51.250;6.712;2022-07-06T14:54:14;2.42;;;0.32;;
60844;SDS011;47984;51.250;6.712;2022-07-06T14:56:42;1.42;;;0.75;;
60844;SDS011;47984;51.250;6.712;2022-07-06T14:59:09;0.63;;;0.40;;
60844;SDS011;47984;51.250;6.712;2022-07-06T15:01:52;1.50;;;0.52;;
60844;SDS011;47984;51.250;6.712;2022-07-06T15:04:19;0.50;;;0.35;;
60844;SDS011;47984;51.250;6.712;2022-07-06T15:06:47;2.33;;;0.40;;
60844;SDS011;47984;51.250;6.712;2022-07-06T15:09:21;3.13;;;0.88;;
60844;SDS011;47984;51.250;6.712;2022-07-06T15:11:49;1.63;;;0.60;;
60844;SDS011;47984;51.250;6.712;2022-07-06T15:14:16;1.55;;;0.65;;
60844;SDS011;47984;51.250;6.712;2022-07-06T15:16:44;1.08;;;0.40;;